Time;durP1;ratioP1;P1;durP2;ratioP2;P2;SDS_P1;SDS_P2;PMS_P1;PMS_P2;Temp;Humidity;BMP_temperature;BMP_pressure;BME280_temperature;BME280_humidity;BME280_pressure;Samples;Min_cycle;Max_cycle;Signal;HPM_P1;HPM_P2
2024/03/07 00:01:31;;;;;;;107.63;45.07;;;5.00;99.90;;;;;;5054225;28;20481;-66
2024/03/07 00:03:59;;;;;;;63.23;40.50;;;5.00;99.90;;;;;;5054381;28;20932;-66
2024/03/07 00:06:26;;;;;;;142.37;45.27;;;5.00;99.90;;;;;;5054661;28;20517;-65
2024/03/07 00:08:54;;;;;;;66.53;38.73;;;5.00;99.90;;;;;;5054231;27;20521;-66
2024/03/07 00:11:22;;;;;;;66.53;41.43;;;5.00;99.90;;;;;;5054145;28;20546;-66
2024/03/07 00:13:49;;;;;;;137.23;42.60;;;4.90;99.90;;;;;;5054158;28;20561;-65
2024/03/07 00:16:18;;;;;;;66.03;37.80;;;4.90;99.90;;;;;;5053674;28;20564;-66
2024/03/07 00:18:45;;;;;;;51.40;36.10;;;4.90;99.90;;;;;;5053981;27;20466;-66
2024/03/07 00:21:12;;;;;;;148.60;46.53;;;4.90;99.90;;;;;;5053748;28;20454;-66
2024/03/07 00:23:40;;;;;;;88.23;38.83;;;4.90;99.90;;;;;;5054131;27;20494;-66
2024/03/07 00:26:07;;;;;;;89.77;38.10;;;4.90;99.90;;;;;;5053969;28;20481;-66
2024/03/07 00:28:39;;;;;;;58.17;36.77;;;4.90;99.90;;;;;;5054535;27;20462;-66
2024/03/07 00:31:08;;;;;;;67.50;40.53;;;4.80;99.90;;;;;;5054157;28;20475;-66
2024/03/07 00:33:37;;;;;;;70.27;39.50;;;4.80;99.90;;;;;;5053980;28;20465;-66
2024/03/07 00:36:05;;;;;;;71.27;41.90;;;4.70;99.90;;;;;;5054182;27;20561;-66
2024/03/07 00:38:33;;;;;;;63.17;40.13;;;4.80;99.90;;;;;;5054253;28;20454;-66
2024/03/07 00:41:00;;;;;;;66.33;40.23;;;4.70;99.90;;;;;;5053607;28;20930;-66
2024/03/07 00:43:27;;;;;;;66.43;40.23;;;4.60;99.90;;;;;;5053817;28;20462;-66
2024/03/07 00:45:54;;;;;;;60.80;37.07;;;4.60;99.90;;;;;;5053947;27;20514;-66
2024/03/07 00:48:24;;;;;;;85.10;38.67;;;4.60;99.90;;;;;;5057116;27;20552;-65
2024/03/07 00:50:53;;;;;;;59.70;36.47;;;4.50;99.90;;;;;;5057076;27;20585;-57
2024/03/07 00:53:20;;;;;;;58.20;36.33;;;4.50;99.90;;;;;;5057473;28;20917;-58
2024/03/07 00:55:48;;;;;;;61.03;39.13;;;4.40;99.90;;;;;;5057179;27;20517;-58
2024/03/07 00:58:15;;;;;;;59.40;36.40;;;4.40;99.90;;;;;;5057754;27;20498;-57
2024/03/07 01:00:43;;;;;;;94.23;38.70;;;4.40;99.90;;;;;;5057171;27;20463;-58
2024/03/07 01:03:13;;;;;;;52.33;33.77;;;4.30;99.90;;;;;;5057047;28;20569;-58
2024/03/07 01:05:40;;;;;;;55.73;36.07;;;4.30;99.90;;;;;;5057090;28;20750;-58
2024/03/07 01:08:11;;;;;;;55.50;38.67;;;4.20;99.90;;;;;;5057206;27;20509;-58
2024/03/07 01:10:38;;;;;;;48.73;34.07;;;4.20;99.90;;;;;;5057368;27;20589;-57
2024/03/07 01:13:07;;;;;;;55.47;35.10;;;4.30;99.90;;;;;;5056685;28;20495;-58
2024/03/07 01:15:36;;;;;;;51.87;34.13;;;4.20;99.90;;;;;;5056732;28;20502;-57
2024/03/07 01:18:04;;;;;;;72.07;35.37;;;4.20;99.90;;;;;;5057383;28;20910;-58
2024/03/07 01:20:31;;;;;;;73.47;37.70;;;4.10;99.90;;;;;;5057078;27;20494;-58
2024/03/07 01:22:58;;;;;;;58.40;35.67;;;4.10;99.90;;;;;;5056758;28;20458;-58
2024/03/07 01:25:27;;;;;;;56.93;35.30;;;4.10;99.90;;;;;;5056591;28;20465;-58
2024/03/07 01:27:55;;;;;;;48.53;32.40;;;4.10;99.90;;;;;;5056725;28;20472;-58
2024/03/07 01:30:23;;;;;;;62.40;34.50;;;4.10;99.90;;;;;;5056846;28;20462;-58
2024/03/07 01:32:50;;;;;;;48.13;33.33;;;3.90;99.90;;;;;;5056600;28;20464;-57
2024/03/07 01:35:17;;;;;;;44.67;30.93;;;4.00;99.90;;;;;;5056792;28;20775;-57
2024/03/07 01:37:44;;;;;;;50.60;32.77;;;4.00;99.90;;;;;;5056712;27;20514;-59
2024/03/07 01:40:14;;;;;;;51.50;30.97;;;3.90;99.90;;;;;;5057101;28;20468;-57
2024/03/07 01:42:42;;;;;;;63.10;34.30;;;3.90;99.90;;;;;;5056945;27;20748;-58
2024/03/07 01:45:13;;;;;;;47.13;32.13;;;3.80;99.90;;;;;;5056527;28;20859;-57
2024/03/07 01:47:40;;;;;;;41.97;29.00;;;3.80;99.90;;;;;;5056231;27;20509;-57
2024/03/07 01:50:08;;;;;;;55.73;32.13;;;3.80;99.90;;;;;;5056477;28;20562;-57
2024/03/07 01:52:36;;;;;;;72.80;33.50;;;3.80;99.90;;;;;;5056473;28;20877;-57
2024/03/07 01:55:03;;;;;;;51.80;31.67;;;3.80;99.90;;;;;;5056336;27;20487;-58
2024/03/07 01:57:32;;;;;;;51.10;30.30;;;3.80;99.90;;;;;;5055735;28;20437;-58
2024/03/07 02:00:06;;;;;;;71.57;36.80;;;3.80;99.90;;;;;;5056350;28;20458;-58
2024/03/07 02:02:33;;;;;;;47.73;32.37;;;3.80;99.90;;;;;;5056612;28;20458;-57
2024/03/07 02:05:01;;;;;;;47.43;31.73;;;3.80;99.90;;;;;;5055849;28;20455;-58
2024/03/07 02:07:30;;;;;;;43.27;30.20;;;3.80;99.90;;;;;;5055720;28;20553;-57
2024/03/07 02:10:01;;;;;;;45.70;28.30;;;3.80;99.90;;;;;;5056221;28;20541;-58
2024/03/07 02:12:29;;;;;;;39.17;29.50;;;3.80;99.90;;;;;;5056090;28;20493;-66
2024/03/07 02:14:57;;;;;;;38.43;27.93;;;3.80;99.90;;;;;;5055753;27;20462;-66
2024/03/07 02:18:14;;;;;;;78.30;29.50;;;3.80;99.90;;;;;;5056146;28;20465;-65
2024/03/07 02:20:46;;;;;;;45.13;28.87;;;3.80;99.90;;;;;;5055534;28;20936;-66
2024/03/07 02:23:14;;;;;;;38.40;29.07;;;3.80;99.90;;;;;;5055216;28;20510;-66
2024/03/07 02:25:41;;;;;;;48.03;28.07;;;3.80;99.90;;;;;;5055919;27;20463;-66
2024/03/07 02:28:09;;;;;;;36.90;27.53;;;3.80;99.90;;;;;;5056077;28;20464;-66
2024/03/07 02:30:36;;;;;;;41.30;29.00;;;3.70;99.90;;;;;;5055972;27;20469;-66
2024/03/07 02:33:07;;;;;;;46.90;27.57;;;3.70;99.90;;;;;;5055627;27;20588;-66
2024/03/07 02:35:35;;;;;;;46.97;28.67;;;3.70;99.90;;;;;;5055825;27;20887;-66
2024/03/07 02:38:05;;;;;;;37.43;28.23;;;3.60;99.90;;;;;;5055926;28;20466;-66
2024/03/07 02:40:32;;;;;;;53.67;30.03;;;3.70;99.90;;;;;;5055928;28;20465;-66
2024/03/07 02:43:00;;;;;;;56.50;30.50;;;3.70;99.90;;;;;;5055253;27;20465;-66
2024/03/07 02:45:27;;;;;;;69.40;31.00;;;3.70;99.90;;;;;;5055505;27;20545;-66
2024/03/07 02:47:54;;;;;;;45.90;30.50;;;3.70;99.90;;;;;;5055583;28;20891;-66
2024/03/07 02:50:23;;;;;;;45.70;28.20;;;3.70;99.90;;;;;;5055545;28;20485;-66
2024/03/07 02:52:52;;;;;;;40.90;29.30;;;3.70;99.90;;;;;;5054745;28;20494;-66
2024/03/07 02:55:21;;;;;;;39.40;28.80;;;3.70;99.90;;;;;;5055100;28;20944;-66
2024/03/07 02:57:48;;;;;;;50.13;29.20;;;3.70;99.90;;;;;;5055233;28;20458;-66
2024/03/07 03:00:43;;;;;;;41.40;29.57;;;3.70;99.90;;;;;;5055393;28;20784;-66
2024/03/07 03:03:10;;;;;;;44.70;29.60;;;3.60;99.90;;;;;;5055547;27;20782;-66
2024/03/07 03:05:39;;;;;;;36.70;28.20;;;3.70;99.90;;;;;;5055004;28;20493;-66
2024/03/07 03:08:06;;;;;;;50.97;28.07;;;3.70;99.90;;;;;;5055246;27;20468;-66
2024/03/07 03:10:36;;;;;;;47.20;30.03;;;3.60;99.90;;;;;;5054141;27;20592;-66
2024/03/07 03:13:03;;;;;;;41.80;29.83;;;3.50;99.90;;;;;;5054836;28;20882;-66
2024/03/07 03:15:31;;;;;;;43.47;30.07;;;3.50;99.90;;;;;;5054883;27;20459;-66
2024/03/07 03:17:59;;;;;;;45.10;26.83;;;3.50;99.90;;;;;;5055239;27;20845;-66
2024/03/07 03:20:33;;;;;;;43.37;28.43;;;3.50;99.90;;;;;;5055256;27;20501;-58
2024/03/07 03:23:02;;;;;;;54.47;30.60;;;3.40;99.90;;;;;;5054612;28;20462;-57
2024/03/07 03:25:34;;;;;;;41.47;28.63;;;3.40;99.90;;;;;;5054939;28;20462;-58
2024/03/07 03:28:03;;;;;;;44.63;29.47;;;3.40;99.90;;;;;;5055401;28;20465;-58
2024/03/07 03:30:32;;;;;;;41.40;28.10;;;3.40;99.90;;;;;;5055488;27;20473;-57
2024/03/07 03:32:59;;;;;;;45.87;28.30;;;3.40;99.90;;;;;;5054381;28;20839;-57
2024/03/07 03:35:27;;;;;;;90.23;29.67;;;3.30;99.90;;;;;;5054752;28;20826;-58
2024/03/07 03:37:54;;;;;;;39.23;26.60;;;3.20;99.90;;;;;;5054780;27;20553;-58
2024/03/07 03:40:21;;;;;;;53.67;28.17;;;3.20;99.90;;;;;;5054974;27;20462;-58
2024/03/07 03:42:50;;;;;;;37.27;26.57;;;3.20;99.90;;;;;;5054874;28;20477;-58
2024/03/07 03:45:19;;;;;;;38.37;26.43;;;3.20;99.90;;;;;;5054436;28;20429;-58
2024/03/07 03:47:46;;;;;;;42.40;26.80;;;3.10;99.90;;;;;;5054677;28;20561;-58
2024/03/07 03:50:14;;;;;;;64.97;28.77;;;3.10;99.90;;;;;;5054319;27;20552;-56
2024/03/07 03:52:43;;;;;;;54.67;27.87;;;3.10;99.90;;;;;;5054702;28;20490;-58
2024/03/07 03:55:12;;;;;;;42.00;26.73;;;3.10;99.90;;;;;;5054374;28;20572;-58
2024/03/07 03:57:40;;;;;;;48.03;30.70;;;3.00;99.90;;;;;;5054892;27;20780;-57
2024/03/07 04:00:12;;;;;;;47.47;28.30;;;3.00;99.90;;;;;;5054877;28;20481;-57
2024/03/07 04:02:41;;;;;;;59.73;30.27;;;3.00;99.90;;;;;;5054710;27;20451;-58
2024/03/07 04:05:10;;;;;;;40.80;27.90;;;3.00;99.90;;;;;;5054483;27;20469;-57
2024/03/07 04:07:41;;;;;;;43.07;28.70;;;3.00;99.90;;;;;;5054267;28;20462;-57
2024/03/07 04:10:10;;;;;;;40.17;28.50;;;3.00;99.90;;;;;;5054540;28;20566;-57
2024/03/07 04:12:39;;;;;;;39.57;28.50;;;3.00;99.90;;;;;;5054457;27;20593;-57
2024/03/07 04:15:08;;;;;;;38.67;28.17;;;3.00;99.90;;;;;;5054213;27;20468;-58
2024/03/07 04:17:35;;;;;;;46.97;27.10;;;3.00;99.90;;;;;;5054137;28;20470;-56
2024/03/07 04:20:05;;;;;;;42.70;29.83;;;2.90;99.90;;;;;;5053716;28;20556;-58
2024/03/07 04:22:32;;;;;;;41.73;28.33;;;2.90;99.90;;;;;;5054052;27;20520;-57
2024/03/07 04:25:01;;;;;;;46.00;27.17;;;2.90;99.90;;;;;;5054204;27;20463;-57
2024/03/07 04:27:28;;;;;;;43.50;27.80;;;2.90;99.90;;;;;;5054237;27;20535;-57
2024/03/07 04:29:55;;;;;;;39.30;27.37;;;2.90;99.90;;;;;;5054207;28;20493;-57
2024/03/07 04:32:23;;;;;;;45.80;26.60;;;2.90;99.90;;;;;;5054091;28;20500;-58
2024/03/07 04:34:50;;;;;;;65.03;29.70;;;2.80;99.90;;;;;;5053884;27;20480;-57
2024/03/07 04:37:19;;;;;;;34.93;26.70;;;2.70;99.90;;;;;;5053864;28;20549;-58
2024/03/07 04:39:46;;;;;;;46.40;29.10;;;2.70;99.90;;;;;;5053936;28;20462;-58
2024/03/07 04:42:13;;;;;;;37.93;28.00;;;2.70;99.90;;;;;;5054407;28;20938;-58
2024/03/07 04:44:40;;;;;;;43.20;26.43;;;2.60;99.90;;;;;;5053940;28;20458;-59
2024/03/07 04:47:08;;;;;;;38.33;27.50;;;2.60;99.90;;;;;;5053530;28;20553;-57
2024/03/07 04:49:36;;;;;;;36.67;26.50;;;2.70;99.90;;;;;;5053315;28;20429;-58
2024/03/07 04:52:04;;;;;;;42.30;26.40;;;2.60;99.90;;;;;;5054171;28;20965;-58
2024/03/07 04:54:34;;;;;;;49.90;29.03;;;2.60;99.90;;;;;;5053939;28;20490;-58
2024/03/07 04:57:01;;;;;;;41.37;27.20;;;2.50;99.90;;;;;;5053369;28;20465;-58
2024/03/07 04:59:29;;;;;;;46.47;28.20;;;2.50;99.90;;;;;;5053996;28;20869;-58
2024/03/07 05:01:56;;;;;;;42.00;29.43;;;2.50;99.90;;;;;;5054037;28;20458;-57
2024/03/07 05:04:29;;;;;;;65.13;30.00;;;2.50;99.90;;;;;;5053806;28;20905;-58
2024/03/07 05:06:57;;;;;;;41.53;27.77;;;2.50;99.90;;;;;;5053633;28;20470;-58
2024/03/07 05:09:25;;;;;;;43.63;28.70;;;2.50;99.90;;;;;;5053338;28;20462;-55
2024/03/07 05:11:54;;;;;;;53.47;31.97;;;2.50;99.90;;;;;;5053721;28;20494;-57
2024/03/07 05:14:22;;;;;;;93.37;34.60;;;2.50;99.90;;;;;;5053894;28;20458;-58
2024/03/07 05:17:04;;;;;;;57.93;29.67;;;2.50;99.90;;;;;;5053593;28;20466;-58
2024/03/07 05:19:32;;;;;;;44.20;29.77;;;2.40;99.90;;;;;;5053442;28;20469;-57
2024/03/07 05:21:59;;;;;;;40.17;27.40;;;2.40;99.90;;;;;;5053273;28;20458;-59
2024/03/07 05:24:27;;;;;;;46.17;30.23;;;2.40;99.90;;;;;;5053599;28;20565;-58
2024/03/07 05:26:56;;;;;;;41.97;28.80;;;2.30;99.90;;;;;;5053306;28;20753;-58
2024/03/07 05:29:23;;;;;;;43.67;29.90;;;2.30;99.90;;;;;;5053332;28;20753;-57
2024/03/07 05:31:51;;;;;;;52.40;31.10;;;2.30;99.90;;;;;;5053521;28;20519;-57
2024/03/07 05:34:19;;;;;;;48.97;28.77;;;2.30;99.90;;;;;;5056227;28;20458;-58
2024/03/07 05:36:47;;;;;;;80.27;33.00;;;2.30;99.90;;;;;;5056358;28;20458;-57
2024/03/07 05:39:15;;;;;;;41.80;29.70;;;2.20;99.90;;;;;;5056589;28;20481;-57
2024/03/07 05:41:44;;;;;;;43.83;30.73;;;2.30;99.90;;;;;;5056295;28;20461;-57
2024/03/07 05:44:13;;;;;;;50.53;30.70;;;2.20;99.90;;;;;;5057173;28;20466;-58
2024/03/07 05:46:46;;;;;;;43.03;30.30;;;2.30;99.90;;;;;;5057032;28;20466;-57
2024/03/07 05:49:16;;;;;;;42.17;27.67;;;2.30;99.90;;;;;;5056733;28;20486;-56
2024/03/07 05:51:44;;;;;;;42.50;28.20;;;2.20;99.90;;;;;;5056579;28;20822;-58
2024/03/07 05:54:12;;;;;;;43.10;27.80;;;2.20;99.90;;;;;;5056609;28;20433;-57
2024/03/07 05:56:41;;;;;;;38.37;27.03;;;2.30;99.90;;;;;;5056732;28;20980;-56
2024/03/07 05:59:09;;;;;;;37.47;26.73;;;2.30;99.90;;;;;;5056036;28;20490;-58
2024/03/07 06:01:38;;;;;;;39.90;26.57;;;2.20;99.90;;;;;;5056402;28;20822;-57
2024/03/07 06:04:08;;;;;;;36.93;26.20;;;2.20;99.90;;;;;;5056028;28;20455;-56
2024/03/07 06:06:35;;;;;;;35.80;26.70;;;2.10;99.90;;;;;;5056249;28;20541;-58
2024/03/07 06:09:07;;;;;;;38.60;27.37;;;2.10;99.90;;;;;;5055995;28;20531;-58
2024/03/07 06:11:35;;;;;;;35.77;27.30;;;2.10;99.90;;;;;;5056082;28;20817;-58
2024/03/07 06:14:03;;;;;;;40.07;27.13;;;2.10;99.90;;;;;;5056194;28;20494;-59
2024/03/07 06:16:32;;;;;;;39.67;25.53;;;2.20;99.90;;;;;;5056017;28;20916;-59
2024/03/07 06:19:01;;;;;;;38.43;25.47;;;2.10;99.90;;;;;;5055795;28;20466;-58
2024/03/07 06:21:29;;;;;;;38.60;27.73;;;2.20;99.90;;;;;;5055356;28;20556;-58
2024/03/07 06:24:00;;;;;;;40.37;28.10;;;2.10;99.90;;;;;;5055995;28;20440;-57
2024/03/07 06:26:37;;;;;;;35.20;26.33;;;2.10;99.90;;;;;;5056284;28;20462;-58
2024/03/07 06:29:06;;;;;;;38.03;28.23;;;2.00;99.90;;;;;;5055605;28;20469;-58
2024/03/07 06:31:34;;;;;;;44.63;28.53;;;2.00;99.90;;;;;;5055852;28;20465;-58
2024/03/07 06:34:03;;;;;;;37.40;29.00;;;1.90;99.90;;;;;;5054963;28;20544;-58
2024/03/07 06:36:30;;;;;;;41.30;28.40;;;2.00;99.90;;;;;;5054172;28;20465;-59
2024/03/07 06:38:57;;;;;;;42.43;30.67;;;2.00;99.90;;;;;;5053737;28;20718;-58
2024/03/07 06:41:25;;;;;;;41.57;30.17;;;2.10;99.90;;;;;;5054460;28;20482;-62
2024/03/07 06:43:53;;;;;;;41.40;30.77;;;2.20;99.90;;;;;;5053959;28;20494;-61
2024/03/07 06:46:22;;;;;;;44.80;32.47;;;2.20;99.90;;;;;;5054340;28;20438;-61
2024/03/07 06:48:49;;;;;;;51.40;35.40;;;2.30;99.90;;;;;;5054763;28;20511;-63
2024/03/07 06:51:19;;;;;;;53.23;35.67;;;2.30;99.90;;;;;;5054342;28;20455;-62
2024/03/07 06:53:47;;;;;;;55.63;36.00;;;2.40;99.90;;;;;;5054167;28;20781;-62
2024/03/07 06:56:16;;;;;;;45.73;33.03;;;2.40;99.90;;;;;;5054202;28;20484;-63
2024/03/07 06:58:44;;;;;;;51.50;34.70;;;2.50;99.90;;;;;;5053724;28;20462;-63
2024/03/07 07:01:15;;;;;;;48.03;33.60;;;2.50;99.90;;;;;;5053987;28;20529;-63
2024/03/07 07:03:44;;;;;;;45.93;32.60;;;2.50;99.90;;;;;;5053995;28;20433;-64
2024/03/07 07:06:12;;;;;;;40.17;30.00;;;2.50;99.90;;;;;;5119274;27;20438;-63
2024/03/07 07:08:40;;;;;;;41.83;31.20;;;2.60;99.90;;;;;;5158542;27;20546;-64
2024/03/07 07:11:08;;;;;;;38.00;30.17;;;2.60;99.90;;;;;;5159073;27;20810;-61
2024/03/07 07:13:36;;;;;;;40.47;28.87;;;2.70;99.90;;;;;;5159645;27;20490;-62
2024/03/07 07:16:04;;;;;;;40.50;29.30;;;2.80;99.90;;;;;;5159740;27;20514;-59
2024/03/07 07:18:31;;;;;;;40.87;29.80;;;2.80;99.90;;;;;;5159762;27;20454;-62
2024/03/07 07:20:58;;;;;;;41.13;28.63;;;3.00;99.90;;;;;;5159527;27;20510;-62
2024/03/07 07:23:26;;;;;;;34.47;26.70;;;3.20;99.90;;;;;;5160121;27;20854;-61
2024/03/07 07:25:55;;;;;;;35.27;27.50;;;3.30;99.90;;;;;;5158348;27;20732;-62
2024/03/07 07:28:22;;;;;;;38.17;27.23;;;3.40;99.90;;;;;;5158316;27;20966;-62
2024/03/07 07:30:50;;;;;;;33.60;24.97;;;3.50;99.90;;;;;;5158129;27;20649;-62
2024/03/07 07:33:18;;;;;;;31.40;25.37;;;3.50;99.90;;;;;;5157880;27;20539;-63
2024/03/07 07:35:45;;;;;;;36.90;27.30;;;3.60;99.90;;;;;;5158523;27;20506;-62
2024/03/07 07:38:14;;;;;;;35.03;26.40;;;3.80;99.90;;;;;;5158114;27;20556;-62
2024/03/07 07:40:41;;;;;;;37.93;27.97;;;4.00;99.90;;;;;;5159661;27;20897;-61
2024/03/07 07:43:13;;;;;;;35.03;27.80;;;4.10;99.90;;;;;;5139040;27;20451;-62
2024/03/07 07:45:42;;;;;;;36.97;27.07;;;4.20;99.90;;;;;;5054416;28;20466;-63
2024/03/07 07:48:11;;;;;;;32.20;25.00;;;4.40;99.90;;;;;;5053785;28;20477;-62
2024/03/07 07:50:40;;;;;;;33.43;26.60;;;4.50;99.90;;;;;;5054258;28;20458;-62
2024/03/07 07:53:09;;;;;;;36.43;27.33;;;4.70;99.90;;;;;;5054474;28;20931;-62
2024/03/07 07:55:36;;;;;;;39.33;27.30;;;4.80;99.90;;;;;;5053890;28;20923;-62
2024/03/07 07:58:05;;;;;;;32.27;25.23;;;5.00;99.90;;;;;;5054127;28;20465;-62
2024/03/07 08:00:35;;;;;;;30.77;25.20;;;5.10;99.90;;;;;;5053415;28;20437;-63
2024/03/07 08:03:05;;;;;;;36.90;26.20;;;5.20;99.90;;;;;;5054275;28;20921;-63
2024/03/07 08:05:35;;;;;;;33.87;25.03;;;5.30;99.90;;;;;;5054544;28;20462;-63
2024/03/07 08:08:06;;;;;;;33.10;24.13;;;5.50;99.90;;;;;;5054308;28;20462;-63
2024/03/07 08:10:34;;;;;;;31.90;22.60;;;5.60;28.70;;;;;;5054444;28;20494;-62
2024/03/07 08:13:03;;;;;;;30.50;23.87;;;5.70;99.90;;;;;;5053698;28;20501;-63
2024/03/07 08:15:33;;;;;;;27.20;23.33;;;5.90;99.90;;;;;;5054394;28;20930;-62
2024/03/07 08:18:01;;;;;;;27.47;22.20;;;6.10;1.00;;;;;;5054441;28;20466;-63
2024/03/07 08:20:29;;;;;;;28.77;22.07;;;6.10;99.90;;;;;;5053854;28;20749;-63
2024/03/07 08:22:57;;;;;;;27.53;23.10;;;6.40;1.00;;;;;;5054161;28;20549;-62
2024/03/07 08:25:26;;;;;;;31.33;23.13;;;6.60;99.90;;;;;;5054263;28;20461;-62
2024/03/07 08:27:56;;;;;;;28.53;21.20;;;6.80;99.90;;;;;;5054130;28;20463;-62
2024/03/07 08:30:24;;;;;;;31.10;20.40;;;6.80;52.20;;;;;;5054520;28;20565;-63
2024/03/07 08:32:53;;;;;;;29.47;22.03;;;6.90;67.60;;;;;;5053856;28;20817;-63
2024/03/07 08:35:21;;;;;;;27.43;21.10;;;7.10;99.90;;;;;;5054013;28;20569;-62
2024/03/07 08:37:52;;;;;;;28.40;21.73;;;6.90;46.20;;;;;;5054173;28;20515;-62
2024/03/07 08:40:21;;;;;;;27.57;21.57;;;6.90;1.00;;;;;;5054470;28;20871;-62
2024/03/07 08:42:50;;;;;;;26.63;20.77;;;6.80;1.00;;;;;;5054107;28;20444;-62
2024/03/07 08:45:19;;;;;;;26.50;20.47;;;6.90;27.80;;;;;;5054002;28;20792;-62
2024/03/07 08:47:47;;;;;;;25.20;20.60;;;6.90;45.70;;;;;;5054195;28;20750;-62
2024/03/07 08:50:17;;;;;;;28.90;21.57;;;6.90;99.90;;;;;;5053960;28;20505;-62
2024/03/07 08:52:46;;;;;;;24.57;20.20;;;7.10;69.60;;;;;;5053064;28;20465;-62
2024/03/07 08:55:15;;;;;;;25.50;20.33;;;7.20;4.10;;;;;;5053817;28;20486;-62
2024/03/07 08:57:43;;;;;;;25.37;20.57;;;7.40;1.00;;;;;;5053768;28;20759;-62
2024/03/07 09:00:16;;;;;;;27.40;20.57;;;7.30;1.00;;;;;;5053761;28;20462;-62
2024/03/07 09:02:48;;;;;;;27.13;19.70;;;7.20;1.00;;;;;;5053587;28;20468;-63
2024/03/07 09:05:16;;;;;;;29.50;20.90;;;7.30;1.00;;;;;;5053523;28;20756;-62
2024/03/07 09:07:44;;;;;;;27.53;20.30;;;7.30;1.00;;;;;;5054294;28;20814;-62
2024/03/07 09:10:12;;;;;;;25.57;20.60;;;7.20;1.00;;;;;;5057521;28;20886;-62
2024/03/07 09:12:39;;;;;;;26.30;19.40;;;7.10;1.00;;;;;;5057339;28;20962;-62
2024/03/07 09:15:10;;;;;;;26.87;20.47;;;7.20;1.00;;;;;;5056961;28;20494;-62
2024/03/07 09:17:37;;;;;;;28.23;20.63;;;7.00;1.00;;;;;;5057055;28;20466;-62
2024/03/07 09:20:06;;;;;;;25.70;20.37;;;6.80;1.00;;;;;;5057518;28;20507;-62
2024/03/07 09:22:34;;;;;;;24.90;20.13;;;6.80;1.00;;;;;;5056839;28;20515;-62
2024/03/07 09:25:02;;;;;;;27.20;20.50;;;6.80;1.00;;;;;;5056711;28;20454;-62
2024/03/07 09:27:30;;;;;;;28.20;21.10;;;6.70;1.00;;;;;;5056904;28;20810;-62
2024/03/07 09:29:57;;;;;;;28.03;21.30;;;6.80;1.00;;;;;;5057204;28;20433;-62
2024/03/07 09:32:24;;;;;;;32.70;22.43;;;6.90;1.00;;;;;;5057130;28;20522;-62
2024/03/07 09:34:54;;;;;;;25.87;20.80;;;6.80;1.00;;;;;;5056773;28;20926;-62
2024/03/07 09:37:23;;;;;;;27.27;20.80;;;7.00;1.00;;;;;;5056552;28;20466;-62
2024/03/07 09:39:54;;;;;;;25.50;21.57;;;7.10;1.00;;;;;;5056955;28;20509;-62
2024/03/07 09:42:25;;;;;;;26.47;20.70;;;7.20;1.00;;;;;;5056328;28;20458;-62
2024/03/07 09:44:52;;;;;;;25.30;19.47;;;7.20;1.00;;;;;;5056296;28;20455;-62
2024/03/07 09:47:21;;;;;;;26.50;21.10;;;7.30;1.00;;;;;;5056648;28;20486;-62
2024/03/07 09:49:48;;;;;;;25.60;19.60;;;7.50;1.00;;;;;;5056477;28;20488;-62
2024/03/07 09:52:17;;;;;;;23.37;19.53;;;7.50;1.00;;;;;;5056504;28;20753;-62
2024/03/07 09:54:45;;;;;;;24.00;19.73;;;7.60;1.00;;;;;;5056391;28;20565;-62
2024/03/07 09:57:15;;;;;;;27.37;20.23;;;7.70;1.00;;;;;;5056486;28;20459;-62
2024/03/07 09:59:49;;;;;;;27.27;20.90;;;7.70;1.00;;;;;;5056444;28;20432;-62
2024/03/07 10:02:18;;;;;;;28.00;19.77;;;7.60;1.00;;;;;;5056936;28;20492;-62
2024/03/07 10:04:48;;;;;;;23.73;19.30;;;7.60;1.00;;;;;;5056152;28;20458;-62
2024/03/07 10:07:16;;;;;;;23.10;19.37;;;7.60;1.00;;;;;;5056096;28;20515;-63
2024/03/07 10:09:44;;;;;;;26.67;19.77;;;7.50;1.00;;;;;;5056504;28;20769;-62
2024/03/07 10:12:12;;;;;;;22.90;18.57;;;7.50;1.00;;;;;;5054839;28;20561;-62
2024/03/07 10:14:50;;;;;;;23.60;19.00;;;7.60;1.00;;;;;;5056269;28;20547;-62
2024/03/07 10:17:17;;;;;;;27.50;20.07;;;7.70;1.00;;;;;;5036239;28;20523;-62
2024/03/07 10:19:50;;;;;;;24.23;20.20;;;7.60;1.00;;;;;;5036340;28;20745;-62
2024/03/07 10:22:18;;;;;;;23.63;19.43;;;7.60;1.00;;;;;;5036247;28;20474;-63
2024/03/07 10:24:51;;;;;;;26.10;20.43;;;7.80;1.00;;;;;;5035843;28;20487;-62
2024/03/07 10:27:20;;;;;;;27.50;19.67;;;8.00;1.00;;;;;;5068578;28;20958;-63
2024/03/07 10:29:50;;;;;;;25.33;20.60;;;8.10;1.00;;;;;;5075771;28;20814;-62
2024/03/07 10:32:21;;;;;;;26.30;20.30;;;8.30;1.00;;;;;;5076251;28;20898;-62
2024/03/07 10:34:50;;;;;;;23.00;18.73;;;8.50;1.00;;;;;;5075764;28;20933;-62
2024/03/07 10:37:19;;;;;;;25.37;19.60;;;8.60;1.00;;;;;;5075581;28;20524;-62
2024/03/07 10:39:46;;;;;;;24.60;18.97;;;8.60;1.00;;;;;;5076069;28;20461;-62
2024/03/07 10:42:16;;;;;;;27.70;19.23;;;8.60;1.00;;;;;;5076262;28;20469;-62
2024/03/07 10:44:46;;;;;;;23.60;19.60;;;8.60;1.00;;;;;;5075797;28;20942;-62
2024/03/07 10:47:18;;;;;;;26.13;19.13;;;8.70;1.00;;;;;;5075807;28;20517;-62
2024/03/07 10:49:57;;;;;;;23.43;19.23;;;9.00;1.00;;;;;;5075752;28;20461;-62
2024/03/07 10:52:34;;;;;;;23.60;18.10;;;9.90;1.00;;;;;;5075210;28;20489;-62
2024/03/07 10:55:10;;;;;;;23.37;19.80;;;10.60;1.00;;;;;;5074458;28;21014;-63
2024/03/07 10:57:50;;;;;;;23.73;18.07;;;10.70;1.00;;;;;;5074802;28;20560;-62
2024/03/07 11:00:36;;;;;;;21.00;17.23;;;11.00;1.00;;;;;;5074985;28;20791;-63
2024/03/07 11:03:08;;;;;;;21.83;17.40;;;11.50;1.00;;;;;;5074410;28;20886;-62
2024/03/07 11:05:36;;;;;;;23.07;19.13;;;11.10;1.00;;;;;;5074215;28;20514;-63
2024/03/07 11:08:11;;;;;;;26.60;19.47;;;11.10;1.00;;;;;;5075275;28;20468;-62
2024/03/07 11:10:39;;;;;;;24.10;18.27;;;11.10;1.00;;;;;;5075770;28;20457;-62
2024/03/07 11:13:11;;;;;;;25.43;18.97;;;11.00;1.00;;;;;;5074716;28;20457;-62
2024/03/07 11:15:41;;;;;;;23.87;19.87;;;10.50;1.00;;;;;;5075654;28;20532;-63
2024/03/07 11:18:12;;;;;;;23.33;19.33;;;10.20;1.00;;;;;;5075756;28;20458;-64
2024/03/07 11:20:43;;;;;;;26.47;18.93;;;10.70;1.00;;;;;;5075950;28;20862;-63
2024/03/07 11:23:30;;;;;;;21.40;17.77;;;11.30;1.00;;;;;;5074929;28;20436;-63
2024/03/07 11:26:07;;;;;;;24.10;17.17;;;11.30;1.00;;;;;;5068578;28;20474;-64
2024/03/07 11:28:37;;;;;;;22.27;17.03;;;11.00;1.00;;;;;;5055426;28;20465;-63
2024/03/07 11:31:26;;;;;;;22.17;18.23;;;11.00;1.00;;;;;;5053334;28;20553;-63
2024/03/07 11:34:19;;;;;;;20.90;17.87;;;10.90;1.00;;;;;;5047932;28;20559;-63
2024/03/07 11:36:49;;;;;;;19.93;17.20;;;10.70;1.00;;;;;;5031320;28;20478;-63
2024/03/07 11:39:42;;;;;;;27.30;17.13;;;10.50;1.00;;;;;;5053390;28;20546;-63
2024/03/07 11:42:10;;;;;;;23.17;17.23;;;10.40;1.00;;;;;;5038223;28;20507;-63
2024/03/07 11:44:39;;;;;;;19.73;15.90;;;10.50;1.00;;;;;;5053993;28;20867;-64
2024/03/07 11:47:09;;;;;;;19.30;16.17;;;10.50;1.00;;;;;;5053951;28;20757;-63
2024/03/07 11:49:38;;;;;;;19.70;16.23;;;10.50;1.00;;;;;;5051412;28;20976;-63
2024/03/07 11:52:11;;;;;;;17.43;15.00;;;10.50;1.00;;;;;;5048700;28;20454;-63
2024/03/07 11:54:41;;;;;;;14.53;12.90;;;10.60;1.00;;;;;;5052569;28;20554;-63
2024/03/07 11:57:12;;;;;;;13.00;10.90;;;10.90;1.00;;;;;;5051920;28;20462;-63
2024/03/07 11:59:45;;;;;;;12.37;10.87;;;11.50;1.00;;;;;;5053116;28;20553;-64
2024/03/07 12:02:15;;;;;;;13.77;10.03;;;11.70;1.00;;;;;;5052999;28;20501;-64
2024/03/07 12:04:44;;;;;;;11.97;10.07;;;11.40;1.00;;;;;;5052579;28;20454;-63
2024/03/07 12:07:11;;;;;;;12.07;10.77;;;11.70;1.00;;;;;;5053924;28;20458;-63
2024/03/07 12:09:40;;;;;;;12.50;10.53;;;12.60;1.00;;;;;;5052762;28;20459;-64
2024/03/07 12:12:10;;;;;;;11.17;9.97;;;13.30;1.00;;;;;;5053307;28;20477;-63
2024/03/07 12:14:38;;;;;;;14.40;11.53;;;13.10;1.00;;;;;;5053125;28;20494;-63
2024/03/07 12:17:06;;;;;;;13.87;11.33;;;12.90;1.00;;;;;;5052801;28;20560;-64
2024/03/07 12:19:34;;;;;;;11.87;10.67;;;13.20;1.00;;;;;;5051607;28;20458;-63
2024/03/07 12:22:04;;;;;;;12.93;11.07;;;13.10;99.90;;;;;;5051391;28;20485;-63
2024/03/07 12:24:31;;;;;;;12.30;11.00;;;12.60;99.90;;;;;;5052686;28;20581;-63
2024/03/07 12:27:09;;;;;;;14.53;13.03;;;12.10;99.90;;;;;;5052305;28;20554;-63
2024/03/07 12:29:38;;;;;;;14.43;11.67;;;11.40;99.90;;;;;;5052712;28;20465;-63
2024/03/07 12:32:07;;;;;;;20.50;15.50;;;11.20;99.90;;;;;;5052505;28;20509;-62
2024/03/07 12:34:40;;;;;;;21.07;18.63;;;10.90;1.00;;;;;;5052843;28;20490;-62
2024/03/07 12:37:10;;;;;;;20.67;18.37;;;10.60;1.00;;;;;;5052305;28;20466;-62
2024/03/07 12:39:46;;;;;;;20.83;17.77;;;10.20;1.00;;;;;;5052835;28;20462;-61
2024/03/07 12:42:15;;;;;;;20.40;18.20;;;9.80;1.00;;;;;;5054216;28;20553;-61
2024/03/07 12:44:45;;;;;;;20.33;17.00;;;9.80;1.00;;;;;;5055851;28;20867;-61
2024/03/07 12:47:13;;;;;;;20.77;17.70;;;9.60;1.00;;;;;;5055402;28;20732;-63
2024/03/07 12:49:42;;;;;;;21.13;17.30;;;9.60;1.00;;;;;;5055321;28;20505;-63